Time;durP1;ratioP1;P1;durP2;ratioP2;P2;SDS_P1;SDS_P2;PMS_P1;PMS_P2;Temp;Humidity;BMP_temperature;BMP_pressure;BME280_temperature;BME280_humidity;BME280_pressure;Samples;Min_cycle;Max_cycle;Signal;HPM_P1;HPM_P2
2024/02/24 00:02:16;;;;;;;;;;;;;;;6.82;78.00;96689.17;110484;1241;71992;-61
2024/02/24 00:04:44;;;;;;;;;;;;;;;6.78;76.85;96687.67;110469;1241;69478;-61
2024/02/24 00:07:13;;;;;;;;;;;;;;;6.74;77.35;96685.92;110456;1241;68619;-60
2024/02/24 00:09:42;;;;;;;;;;;;;;;6.69;78.03;96687.16;110361;1240;60885;-60
2024/02/24 00:12:10;;;;;;;;;;;;;;;6.60;79.13;96688.07;110384;1241;60453;-60
2024/02/24 00:14:39;;;;;;;;;;;;;;;6.54;76.87;96689.67;110360;1241;72074;-60
2024/02/24 00:17:08;;;;;;;;;;;;;;;6.47;77.77;96691.17;110545;1241;70331;-60
2024/02/24 00:19:36;;;;;;;;;;;;;;;6.42;77.89;96689.50;110433;1243;68579;-60
2024/02/24 00:22:05;;;;;;;;;;;;;;;6.36;76.62;96687.28;110456;1242;60532;-60
2024/02/24 00:24:34;;;;;;;;;;;;;;;6.31;75.76;96692.98;110522;1242;60448;-60
2024/02/24 00:27:03;;;;;;;;;;;;;;;6.26;79.19;96693.98;110435;1242;71561;-61
2024/02/24 00:29:31;;;;;;;;;;;;;;;6.23;78.26;96694.00;110349;1241;69166;-60
2024/02/24 00:32:00;;;;;;;;;;;;;;;6.23;77.97;96693.02;110213;1242;69259;-60
2024/02/24 00:34:29;;;;;;;;;;;;;;;6.23;77.70;96691.98;110348;1240;60550;-60
2024/02/24 00:36:57;;;;;;;;;;;;;;;6.26;76.71;96692.63;110331;1240;60480;-60
2024/02/24 00:39:26;;;;;;;;;;;;;;;6.28;75.94;96691.42;110338;1240;72154;-60
2024/02/24 00:41:55;;;;;;;;;;;;;;;6.32;75.69;96687.02;110328;1241;68394;-60
2024/02/24 00:44:23;;;;;;;;;;;;;;;6.34;76.52;96679.25;110445;1241;68805;-60
2024/02/24 00:46:53;;;;;;;;;;;;;;;6.34;74.86;96677.71;110434;1244;60551;-60
2024/02/24 00:49:22;;;;;;;;;;;;;;;6.33;75.38;96674.52;110408;1239;60487;-60
2024/02/24 00:51:50;;;;;;;;;;;;;;;6.32;76.14;96677.02;110412;1242;72437;-61
2024/02/24 00:54:19;;;;;;;;;;;;;;;6.32;78.34;96675.05;110453;1242;68301;-61
2024/02/24 00:56:48;;;;;;;;;;;;;;;6.34;76.71;96674.27;110345;1240;69374;-61
2024/02/24 00:59:16;;;;;;;;;;;;;;;6.35;76.09;96677.69;110452;1242;60541;-61
2024/02/24 01:01:45;;;;;;;;;;;;;;;6.36;76.81;96679.96;110303;1241;60437;-61
2024/02/24 01:04:14;;;;;;;;;;;;;;;6.35;76.36;96682.81;110367;1241;71981;-61
2024/02/24 01:06:42;;;;;;;;;;;;;;;6.36;77.01;96676.33;110346;1244;69883;-60
2024/02/24 01:09:11;;;;;;;;;;;;;;;6.40;76.21;96677.00;110385;1242;68607;-60
2024/02/24 01:11:40;;;;;;;;;;;;;;;6.42;76.01;96682.75;110366;1242;60627;-60
2024/02/24 01:14:08;;;;;;;;;;;;;;;6.41;77.35;96674.29;110329;1241;60888;-60
2024/02/24 01:16:38;;;;;;;;;;;;;;;6.45;76.05;96669.58;110365;1249;72877;-60
2024/02/24 01:19:07;;;;;;;;;;;;;;;6.49;75.28;96672.42;110375;1242;69070;-60
2024/02/24 01:21:40;;;;;;;;;;;;;;;6.49;75.16;96675.51;110319;1244;69494;-60
2024/02/24 01:24:09;;;;;;;;;;;;;;;6.48;75.56;96674.52;110352;1242;60914;-60
2024/02/24 01:26:39;;;;;;;;;;;;;;;6.48;77.37;96668.98;110347;1243;60497;-60
2024/02/24 01:29:08;;;;;;;;;;;;;;;6.46;75.24;96669.79;110340;1242;72060;-60
2024/02/24 01:31:36;;;;;;;;;;;;;;;6.43;75.98;96665.67;110408;1241;69707;-60
2024/02/24 01:34:05;;;;;;;;;;;;;;;6.40;78.16;96666.63;110355;1242;69721;-60
2024/02/24 01:36:34;;;;;;;;;;;;;;;6.37;76.94;96668.15;110317;1244;60546;-60
2024/02/24 01:39:03;;;;;;;;;;;;;;;6.36;75.58;96665.11;110396;1240;60498;-60
2024/02/24 01:41:32;;;;;;;;;;;;;;;6.36;75.95;96664.77;110363;1242;72615;-60
2024/02/24 01:44:00;;;;;;;;;;;;;;;6.36;74.66;96663.89;110325;1242;69169;-60
2024/02/24 01:46:31;;;;;;;;;;;;;;;6.36;75.18;96665.11;110341;1249;69953;-60
2024/02/24 01:49:00;;;;;;;;;;;;;;;6.36;74.78;96659.55;110373;1241;60457;-60
2024/02/24 01:51:29;;;;;;;;;;;;;;;6.35;75.31;96655.16;110347;1242;60483;-60
2024/02/24 01:53:57;;;;;;;;;;;;;;;6.31;75.48;96656.60;110346;1242;72778;-61
2024/02/24 01:56:26;;;;;;;;;;;;;;;6.29;75.72;96656.41;110375;1240;69390;-61
2024/02/24 01:58:54;;;;;;;;;;;;;;;6.28;75.90;96661.33;110361;1241;68278;-60
2024/02/24 02:01:23;;;;;;;;;;;;;;;6.27;75.61;96662.77;110458;1242;61011;-60
2024/02/24 02:03:53;;;;;;;;;;;;;;;6.27;76.28;96658.48;110529;1241;60553;-60
2024/02/24 02:06:24;;;;;;;;;;;;;;;6.28;76.10;96660.84;110445;1241;71473;-60
2024/02/24 02:08:53;;;;;;;;;;;;;;;6.27;75.71;96658.64;110456;1242;69290;-61
2024/02/24 02:11:21;;;;;;;;;;;;;;;6.29;76.37;96664.05;110474;1242;70335;-60
2024/02/24 02:13:50;;;;;;;;;;;;;;;6.32;75.53;96667.09;110405;1243;60535;-61
2024/02/24 02:16:19;;;;;;;;;;;;;;;6.35;75.26;96664.84;110406;1242;60489;-60
2024/02/24 02:18:48;;;;;;;;;;;;;;;6.38;75.73;96661.52;110316;1242;72912;-60
2024/02/24 02:21:17;;;;;;;;;;;;;;;6.41;76.08;96656.98;110323;1243;68767;-60
2024/02/24 02:23:46;;;;;;;;;;;;;;;6.45;74.68;96659.69;110390;1241;68943;-61
2024/02/24 02:26:17;;;;;;;;;;;;;;;6.47;75.35;96655.05;110424;1239;60549;-61
2024/02/24 02:28:46;;;;;;;;;;;;;;;6.47;75.03;96653.67;110415;1242;60550;-60
2024/02/24 02:31:15;;;;;;;;;;;;;;;6.46;74.62;96655.27;110480;1241;72143;-60
2024/02/24 02:33:44;;;;;;;;;;;;;;;6.47;74.48;96659.39;110330;1242;69206;-60
2024/02/24 02:36:12;;;;;;;;;;;;;;;6.49;74.32;96661.84;110314;1241;69992;-60
2024/02/24 02:38:41;;;;;;;;;;;;;;;6.49;74.30;96660.95;110355;1244;60531;-60
2024/02/24 02:41:10;;;;;;;;;;;;;;;6.51;75.07;96664.08;110332;1242;60611;-61
2024/02/24 02:43:38;;;;;;;;;;;;;;;6.53;75.35;96668.66;110386;1241;71408;-60
2024/02/24 02:46:07;;;;;;;;;;;;;;;6.50;75.45;96675.56;110310;1241;69254;-60
2024/02/24 02:48:35;;;;;;;;;;;;;;;6.50;75.70;96674.03;110346;1249;69243;-60
2024/02/24 02:51:04;;;;;;;;;;;;;;;6.50;74.74;96678.89;110355;1242;60543;-61
2024/02/24 02:53:33;;;;;;;;;;;;;;;6.49;75.53;96676.31;110404;1242;61981;-60
2024/02/24 02:56:02;;;;;;;;;;;;;;;6.52;74.00;96676.67;110480;1248;72226;-61
2024/02/24 02:58:30;;;;;;;;;;;;;;;6.52;75.29;96686.36;110361;1240;69708;-61
2024/02/24 03:00:59;;;;;;;;;;;;;;;6.52;75.19;96688.64;110326;1244;69301;-61
2024/02/24 03:03:28;;;;;;;;;;;;;;;6.50;74.89;96692.54;110382;1242;60937;-60
2024/02/24 03:05:57;;;;;;;;;;;;;;;6.49;75.31;96689.30;110350;1243;60489;-60
2024/02/24 03:08:25;;;;;;;;;;;;;;;6.49;75.57;96685.59;110332;1240;72143;-61
2024/02/24 03:10:54;;;;;;;;;;;;;;;6.45;75.17;96687.05;110400;1240;69873;-61
2024/02/24 03:13:23;;;;;;;;;;;;;;;6.38;75.58;96687.98;110397;1242;69209;-61
2024/02/24 03:15:52;;;;;;;;;;;;;;;6.31;75.08;96696.05;110316;1242;60516;-61
2024/02/24 03:18:21;;;;;;;;;;;;;;;6.31;74.34;96697.50;110387;1244;60560;-61
2024/02/24 03:20:50;;;;;;;;;;;;;;;6.31;76.38;96701.45;110356;1242;72735;-61
2024/02/24 03:23:19;;;;;;;;;;;;;;;6.30;75.90;96702.40;110354;1241;68796;-61
2024/02/24 03:25:47;;;;;;;;;;;;;;;6.27;75.40;96701.17;110481;1244;69518;-61
2024/02/24 03:28:16;;;;;;;;;;;;;;;6.25;76.08;96701.02;110432;1240;60567;-61
2024/02/24 03:30:45;;;;;;;;;;;;;;;6.21;75.41;96700.75;110468;1241;60482;-61
2024/02/24 03:33:14;;;;;;;;;;;;;;;6.22;75.37;96703.09;110297;1244;71158;-61
2024/02/24 03:35:43;;;;;;;;;;;;;;;6.23;74.58;96701.80;110381;1248;68214;-60
2024/02/24 03:38:12;;;;;;;;;;;;;;;6.21;75.92;96698.86;110321;1244;67817;-62
2024/02/24 03:40:40;;;;;;;;;;;;;;;6.21;75.51;96701.62;110355;1245;60411;-60
2024/02/24 03:43:09;;;;;;;;;;;;;;;6.22;76.29;96705.88;110416;1241;60908;-61
2024/02/24 03:45:37;;;;;;;;;;;;;;;6.19;77.82;96706.06;110462;1247;72143;-61
2024/02/24 03:48:06;;;;;;;;;;;;;;;6.16;77.69;96708.55;110430;1242;69799;-61
2024/02/24 03:50:35;;;;;;;;;;;;;;;6.15;75.73;96707.74;110466;1242;69744;-61
2024/02/24 03:53:04;;;;;;;;;;;;;;;6.14;75.13;96704.98;110327;1242;60505;-61
2024/02/24 03:55:33;;;;;;;;;;;;;;;6.15;75.54;96707.90;110378;1240;60544;-61
2024/02/24 03:58:01;;;;;;;;;;;;;;;6.16;76.11;96706.27;110476;1241;72510;-61
2024/02/24 04:00:34;;;;;;;;;;;;;;;6.17;76.31;96708.64;110558;1239;68899;-61
2024/02/24 04:03:04;;;;;;;;;;;;;;;6.18;75.33;96705.78;110511;1240;69882;-61
2024/02/24 04:05:33;;;;;;;;;;;;;;;6.21;74.95;96704.88;110479;1241;60526;-60
2024/02/24 04:08:02;;;;;;;;;;;;;;;6.25;75.09;96702.34;110506;1242;60537;-61
2024/02/24 04:10:30;;;;;;;;;;;;;;;6.32;75.04;96702.11;110508;1240;72842;-60
2024/02/24 04:12:59;;;;;;;;;;;;;;;6.37;75.64;96711.09;110400;1242;69171;-60
2024/02/24 04:15:27;;;;;;;;;;;;;;;6.39;74.99;96703.88;110370;1242;69435;-60
2024/02/24 04:17:56;;;;;;;;;;;;;;;6.43;74.53;96705.88;110377;1243;60554;-61
2024/02/24 04:20:25;;;;;;;;;;;;;;;6.46;74.98;96699.73;110401;1242;60467;-60
2024/02/24 04:22:54;;;;;;;;;;;;;;;6.52;74.43;96703.30;110353;1238;72063;-60
2024/02/24 04:25:22;;;;;;;;;;;;;;;6.56;74.57;96700.14;110375;1238;68478;-60
2024/02/24 04:27:51;;;;;;;;;;;;;;;6.58;75.18;96698.11;110410;1242;69257;-60
2024/02/24 04:30:19;;;;;;;;;;;;;;;6.60;74.94;96697.44;110445;1240;60502;-60
2024/02/24 04:32:48;;;;;;;;;;;;;;;6.60;75.30;96688.77;110350;1238;60475;-60
2024/02/24 04:35:17;;;;;;;;;;;;;;;6.59;74.78;96681.17;110239;1242;71756;-59
2024/02/24 04:37:46;;;;;;;;;;;;;;;6.58;74.74;96682.44;110286;1249;69304;-60
2024/02/24 04:40:15;;;;;;;;;;;;;;;6.57;74.44;96678.95;110320;1242;69843;-60
2024/02/24 04:42:43;;;;;;;;;;;;;;;6.56;74.71;96684.03;110301;1242;60476;-60
2024/02/24 04:45:12;;;;;;;;;;;;;;;6.52;75.39;96684.51;110438;1249;60466;-60
2024/02/24 04:47:41;;;;;;;;;;;;;;;6.48;75.59;96686.63;110317;1243;72198;-60
2024/02/24 04:50:10;;;;;;;;;;;;;;;6.45;75.77;96686.52;110349;1241;69189;-60
2024/02/24 04:52:38;;;;;;;;;;;;;;;6.41;75.44;96691.05;110329;1242;69302;-60
2024/02/24 04:55:07;;;;;;;;;;;;;;;6.39;75.80;96700.77;110345;1241;60540;-62
2024/02/24 04:57:36;;;;;;;;;;;;;;;6.38;75.92;96704.43;110386;1239;60488;-61
2024/02/24 05:00:05;;;;;;;;;;;;;;;6.41;76.16;96705.49;110388;1247;72590;-60
2024/02/24 05:02:34;;;;;;;;;;;;;;;6.44;75.17;96697.82;110349;1242;69067;-61
2024/02/24 05:05:04;;;;;;;;;;;;;;;6.46;76.58;96698.56;110389;1248;70001;-60
2024/02/24 05:07:33;;;;;;;;;;;;;;;6.48;75.76;96693.95;110467;1241;60473;-60
2024/02/24 05:10:01;;;;;;;;;;;;;;;6.48;76.75;96703.08;110217;1242;60466;-60
2024/02/24 05:12:30;;;;;;;;;;;;;;;6.49;77.17;96714.10;110352;1242;72583;-60
2024/02/24 05:14:59;;;;;;;;;;;;;;;6.50;76.74;96711.44;110399;1242;69263;-61
2024/02/24 05:17:27;;;;;;;;;;;;;;;6.53;76.98;96712.81;110439;1241;70083;-61
2024/02/24 05:19:56;;;;;;;;;;;;;;;6.57;76.24;96715.66;110456;1241;60470;-60
2024/02/24 05:22:25;;;;;;;;;;;;;;;6.58;76.79;96716.58;110362;1242;60405;-60
2024/02/24 05:24:54;;;;;;;;;;;;;;;6.62;75.81;96715.11;110385;1242;72227;-61
2024/02/24 05:27:22;;;;;;;;;;;;;;;6.66;76.12;96717.47;110424;1249;69825;-61
2024/02/24 05:29:51;;;;;;;;;;;;;;;6.69;76.22;96732.64;110419;1242;68640;-61
2024/02/24 05:32:20;;;;;;;;;;;;;;;6.72;75.85;96736.77;110382;1241;60612;-61
2024/02/24 05:34:48;;;;;;;;;;;;;;;6.79;75.52;96747.06;110374;1241;60478;-61
2024/02/24 05:37:17;;;;;;;;;;;;;;;6.85;75.13;96752.98;110376;1241;72747;-61
2024/02/24 05:39:47;;;;;;;;;;;;;;;6.94;75.42;96749.66;110384;1242;69245;-61
2024/02/24 05:42:19;;;;;;;;;;;;;;;7.04;75.00;96752.95;110371;1241;69232;-61
2024/02/24 05:44:48;;;;;;;;;;;;;;;7.12;74.95;96757.08;110380;1242;60509;-60
2024/02/24 05:47:17;;;;;;;;;;;;;;;7.19;75.36;96760.27;110345;1242;60428;-60
2024/02/24 05:49:45;;;;;;;;;;;;;;;7.25;75.39;96765.35;110364;1241;72161;-60
2024/02/24 05:52:16;;;;;;;;;;;;;;;7.33;74.98;96773.81;110474;1242;69217;-61
2024/02/24 05:54:44;;;;;;;;;;;;;;;7.41;74.48;96768.05;110350;1242;69341;-61
2024/02/24 05:57:13;;;;;;;;;;;;;;;7.50;74.66;96774.65;110389;1241;60543;-61
2024/02/24 05:59:42;;;;;;;;;;;;;;;7.58;74.51;96775.11;110550;1243;60492;-61
2024/02/24 06:02:11;;;;;;;;;;;;;;;7.68;74.38;96776.19;110485;1241;72771;-62
2024/02/24 06:04:39;;;;;;;;;;;;;;;7.77;73.44;96776.23;110547;1241;69454;-61
2024/02/24 06:07:08;;;;;;;;;;;;;;;7.90;73.22;96783.97;110457;1241;69258;-62
2024/02/24 06:09:37;;;;;;;;;;;;;;;8.02;73.25;96784.66;110380;1242;60470;-61
2024/02/24 06:12:06;;;;;;;;;;;;;;;8.13;72.26;96785.39;110471;1242;60543;-61
2024/02/24 06:14:34;;;;;;;;;;;;;;;8.25;73.25;96787.36;110455;1241;72155;-61
2024/02/24 06:17:03;;;;;;;;;;;;;;;8.34;72.85;96791.55;110015;1241;679094;-61
2024/02/24 06:19:31;;;;;;;;;;;;;;;8.45;72.09;96791.14;110458;1242;69878;-61
2024/02/24 06:22:00;;;;;;;;;;;;;;;8.53;72.32;96791.90;110574;1241;60461;-61
2024/02/24 06:24:29;;;;;;;;;;;;;;;8.58;71.92;96789.48;110546;1241;60521;-61
2024/02/24 06:26:58;;;;;;;;;;;;;;;8.65;72.10;96787.39;110444;1241;72857;-61
2024/02/24 06:29:27;;;;;;;;;;;;;;;8.70;71.99;96789.27;110426;1242;69205;-61
2024/02/24 06:31:56;;;;;;;;;;;;;;;8.73;71.21;96792.33;110329;1241;69995;-61
2024/02/24 06:34:25;;;;;;;;;;;;;;;8.76;71.34;96795.61;110338;1241;60516;-61
2024/02/24 06:36:53;;;;;;;;;;;;;;;8.80;71.15;96793.70;110348;1241;60428;-61
2024/02/24 06:39:22;;;;;;;;;;;;;;;8.84;71.15;96795.68;110303;1240;71464;-61
2024/02/24 06:41:51;;;;;;;;;;;;;;;8.90;71.58;96797.84;110358;1241;69552;-61
2024/02/24 06:44:21;;;;;;;;;;;;;;;8.98;71.58;96804.17;110338;1243;69097;-61
2024/02/24 06:46:50;;;;;;;;;;;;;;;9.05;71.67;96798.92;110359;1241;60532;-61
2024/02/24 06:49:22;;;;;;;;;;;;;;;9.14;71.12;96797.91;110322;1240;60503;-61
2024/02/24 06:51:51;;;;;;;;;;;;;;;9.24;71.27;96803.02;110355;1241;72148;-61
2024/02/24 06:54:20;;;;;;;;;;;;;;;9.35;70.67;96804.11;110332;1241;69202;-61
2024/02/24 06:56:48;;;;;;;;;;;;;;;9.46;70.35;96802.52;110353;1242;69302;-62
2024/02/24 06:59:17;;;;;;;;;;;;;;;9.57;68.95;96806.27;110328;1241;60985;-61
2024/02/24 07:01:46;;;;;;;;;;;;;;;9.66;68.88;96807.25;110417;1242;60461;-61
2024/02/24 07:04:15;;;;;;;;;;;;;;;9.76;69.60;96811.55;110335;1247;71173;-61
2024/02/24 07:06:44;;;;;;;;;;;;;;;9.85;68.83;96815.45;110357;1248;69865;-61
2024/02/24 07:09:14;;;;;;;;;;;;;;;9.97;69.18;96813.18;110346;1242;69318;-61
2024/02/24 07:11:43;;;;;;;;;;;;;;;10.06;69.44;96810.48;110311;1242;60560;-61
2024/02/24 07:14:11;;;;;;;;;;;;;;;10.15;69.48;96814.67;110340;1239;60533;-61
2024/02/24 07:16:42;;;;;;;;;;;;;;;10.25;69.28;96819.33;110342;1241;71983;-61
2024/02/24 07:19:11;;;;;;;;;;;;;;;10.35;67.99;96821.45;110348;1241;69443;-61
2024/02/24 07:21:43;;;;;;;;;;;;;;;10.48;69.09;96827.55;110440;1239;69927;-61
2024/02/24 07:24:12;;;;;;;;;;;;;;;10.58;67.01;96832.62;110365;1241;60475;-61
2024/02/24 07:26:44;;;;;;;;;;;;;;;10.70;67.63;96830.21;110391;1242;60476;-60
2024/02/24 07:29:18;;;;;;;;;;;;;;;10.84;67.24;96827.72;110340;1241;72141;-60
2024/02/24 07:31:47;;;;;;;;;;;;;;;10.96;66.27;96823.20;110401;1241;68866;-61
2024/02/24 07:34:15;;;;;;;;;;;;;;;11.07;67.18;96825.26;110299;1241;69804;-61
2024/02/24 07:36:44;;;;;;;;;;;;;;;11.18;66.11;96831.43;110365;1241;60547;-60
2024/02/24 07:39:13;;;;;;;;;;;;;;;11.30;65.90;96828.58;110372;1241;60530;-60
2024/02/24 07:41:42;;;;;;;;;;;;;;;11.40;67.41;96820.17;110472;1241;72132;-61
2024/02/24 07:44:11;;;;;;;;;;;;;;;11.52;65.52;96820.94;110502;1241;69198;-61
2024/02/24 07:46:39;;;;;;;;;;;;;;;11.63;64.13;96828.28;110493;1241;69389;-61
2024/02/24 07:49:08;;;;;;;;;;;;;;;11.78;64.29;96829.30;110423;1241;60547;-61
2024/02/24 07:51:37;;;;;;;;;;;;;;;11.94;63.88;96832.98;110500;1248;60563;-61
2024/02/24 07:54:06;;;;;;;;;;;;;;;12.05;63.23;96829.58;110370;1241;72734;-61
2024/02/24 07:56:34;;;;;;;;;;;;;;;12.20;64.86;96833.70;110401;1241;69195;-61
2024/02/24 07:59:03;;;;;;;;;;;;;;;12.32;62.35;96834.71;110339;1241;69057;-61
2024/02/24 08:01:32;;;;;;;;;;;;;;;12.48;62.34;96831.34;110334;1241;60547;-60
2024/02/24 08:04:00;;;;;;;;;;;;;;;12.65;63.03;96832.11;110389;1241;60479;-61
2024/02/24 08:06:31;;;;;;;;;;;;;;;12.79;62.93;96832.73;110353;1241;72109;-60
2024/02/24 08:09:01;;;;;;;;;;;;;;;12.88;60.98;96831.23;110339;1241;69214;-60
2024/02/24 08:11:36;;;;;;;;;;;;;;;12.94;60.09;96832.98;110327;1241;69417;-61
2024/02/24 08:14:08;;;;;;;;;;;;;;;13.00;59.42;96831.38;110370;1241;60559;-60
2024/02/24 08:16:37;;;;;;;;;;;;;;;13.03;58.34;96839.33;110356;1241;60479;-61
2024/02/24 08:19:06;;;;;;;;;;;;;;;13.01;57.35;96835.44;110335;1241;72355;-61
2024/02/24 08:21:37;;;;;;;;;;;;;;;13.01;57.43;96831.24;110332;1241;69227;-60
2024/02/24 08:24:09;;;;;;;;;;;;;;;13.00;56.01;96831.00;110320;1242;69942;-61
2024/02/24 08:26:42;;;;;;;;;;;;;;;13.00;55.89;96832.58;110370;1241;60555;-61
2024/02/24 08:29:10;;;;;;;;;;;;;;;13.01;55.85;96826.91;110509;1241;60432;-61
2024/02/24 08:31:39;;;;;;;;;;;;;;;13.02;55.81;96829.74;110436;1240;73147;-59
2024/02/24 08:34:09;;;;;;;;;;;;;;;13.04;55.36;96828.86;110358;1240;69199;-62
2024/02/24 08:36:38;;;;;;;;;;;;;;;13.07;55.20;96834.58;110325;1241;69361;-62
2024/02/24 08:39:07;;;;;;;;;;;;;;;13.11;55.04;96839.14;110348;1241;60518;-62
2024/02/24 08:41:36;;;;;;;;;;;;;;;13.12;54.74;96840.60;110322;1241;60436;-62
2024/02/24 08:44:05;;;;;;;;;;;;;;;13.21;55.81;96845.67;110351;1242;71695;-62
2024/02/24 08:46:34;;;;;;;;;;;;;;;13.30;55.12;96844.23;110302;1242;68189;-62
2024/02/24 08:49:03;;;;;;;;;;;;;;;13.37;54.99;96840.79;110335;1244;69152;-62
2024/02/24 08:51:31;;;;;;;;;;;;;;;13.45;54.79;96839.79;110299;1248;60847;-62
2024/02/24 08:54:00;;;;;;;;;;;;;;;13.55;54.59;96839.42;110347;1240;60470;-61
2024/02/24 08:56:29;;;;;;;;;;;;;;;13.64;54.67;96840.64;110326;1241;71984;-60
2024/02/24 08:58:57;;;;;;;;;;;;;;;13.73;54.14;96836.95;110331;1241;69106;-60
2024/02/24 09:01:27;;;;;;;;;;;;;;;13.85;54.08;96842.55;110316;1239;69282;-60
2024/02/24 09:03:56;;;;;;;;;;;;;;;13.97;53.75;96843.80;110345;1241;60484;-62
2024/02/24 09:06:25;;;;;;;;;;;;;;;14.09;53.86;96846.18;110340;1241;60490;-62
2024/02/24 09:08:54;;;;;;;;;;;;;;;14.22;52.99;96846.52;110392;1241;72186;-60
2024/02/24 09:11:23;;;;;;;;;;;;;;;14.31;51.96;96847.05;110308;1241;69228;-60
2024/02/24 09:13:52;;;;;;;;;;;;;;;14.39;51.90;96844.22;110287;1241;69643;-60
2024/02/24 09:16:21;;;;;;;;;;;;;;;14.52;52.55;96845.34;110392;1241;60491;-60
2024/02/24 09:18:50;;;;;;;;;;;;;;;14.66;52.53;96850.02;110353;1241;60491;-62
2024/02/24 09:21:20;;;;;;;;;;;;;;;14.74;51.11;96854.83;110373;1241;72832;-60
2024/02/24 09:23:49;;;;;;;;;;;;;;;14.81;50.77;96856.98;110329;1241;69248;-60
2024/02/24 09:26:19;;;;;;;;;;;;;;;14.86;50.81;96854.33;110292;1241;69245;-62
2024/02/24 09:28:47;;;;;;;;;;;;;;;14.91;50.75;96856.05;110356;1241;60507;-60
2024/02/24 09:31:16;;;;;;;;;;;;;;;14.91;49.88;96852.42;110348;1241;60476;-60
2024/02/24 09:33:45;;;;;;;;;;;;;;;14.93;49.83;96860.46;110330;1241;72253;-60
2024/02/24 09:36:14;;;;;;;;;;;;;;;14.91;49.81;96860.66;110343;1241;69786;-60
2024/02/24 09:38:42;;;;;;;;;;;;;;;14.89;49.96;96861.92;110319;1241;69599;-60
2024/02/24 09:41:11;;;;;;;;;;;;;;;14.88;49.58;96860.94;110298;1241;60473;-61
2024/02/24 09:43:40;;;;;;;;;;;;;;;14.84;50.23;96861.58;110315;1241;60464;-60
2024/02/24 09:46:09;;;;;;;;;;;;;;;14.84;49.86;96861.39;110361;1241;72872;-61
2024/02/24 09:48:38;;;;;;;;;;;;;;;14.83;50.28;96857.80;110325;1248;69767;-61
2024/02/24 09:51:08;;;;;;;;;;;;;;;14.85;50.72;96857.06;110300;1241;69976;-61
2024/02/24 09:53:37;;;;;;;;;;;;;;;14.88;50.47;96859.05;110306;1247;60570;-59
2024/02/24 09:56:06;;;;;;;;;;;;;;;14.86;50.11;96856.77;110354;1241;60443;-59
2024/02/24 09:58:35;;;;;;;;;;;;;;;14.88;50.46;96858.66;110443;1242;72113;-59
2024/02/24 10:01:04;;;;;;;;;;;;;;;14.89;50.59;96858.27;110337;1240;68738;-60
2024/02/24 10:03:34;;;;;;;;;;;;;;;14.92;51.01;96861.29;110353;1241;68163;-60
2024/02/24 10:06:07;;;;;;;;;;;;;;;14.96;50.79;96863.66;110344;1242;60473;-62
2024/02/24 10:08:38;;;;;;;;;;;;;;;14.99;50.73;96864.60;110384;1242;60456;-61
2024/02/24 10:11:06;;;;;;;;;;;;;;;15.04;51.34;96865.63;110355;1240;72072;-62
2024/02/24 10:13:35;;;;;;;;;;;;;;;15.11;51.48;96861.47;110249;1245;69251;-61
2024/02/24 10:16:08;;;;;;;;;;;;;;;15.19;51.03;96864.84;110400;1241;69129;-61
2024/02/24 10:18:42;;;;;;;;;;;;;;;15.27;51.24;96861.30;110439;1241;60444;-61
2024/02/24 10:21:11;;;;;;;;;;;;;;;15.38;51.30;96860.31;110431;1241;60482;-63
2024/02/24 10:23:39;;;;;;;;;;;;;;;15.48;50.66;96862.09;110502;1241;72183;-61
2024/02/24 10:26:08;;;;;;;;;;;;;;;15.56;50.41;96862.21;110410;1239;69810;-61
2024/02/24 10:28:37;;;;;;;;;;;;;;;15.66;50.66;96854.38;110361;1241;69909;-61
2024/02/24 10:31:06;;;;;;;;;;;;;;;15.75;50.41;96855.13;110353;1239;60563;-61
2024/02/24 10:33:36;;;;;;;;;;;;;;;15.81;50.22;96853.92;110368;1239;60540;-61
2024/02/24 10:36:07;;;;;;;;;;;;;;;15.90;49.94;96858.46;110340;1241;72858;-60
2024/02/24 10:38:38;;;;;;;;;;;;;;;15.93;50.09;96857.22;110379;1241;69108;-62
2024/02/24 10:41:18;;;;;;;;;;;;;;;16.00;50.09;96864.39;110319;1241;69218;-60
2024/02/24 10:43:53;;;;;;;;;;;;;;;16.04;49.36;96867.88;110321;1242;60548;-60
2024/02/24 10:46:38;;;;;;;;;;;;;;;15.96;48.70;96864.58;110361;1241;60430;-60
2024/02/24 10:49:06;;;;;;;;;;;;;;;15.98;49.35;96867.21;110347;1241;71464;-60
2024/02/24 10:51:35;;;;;;;;;;;;;;;15.99;49.28;96863.63;110375;1241;69191;-60
2024/02/24 10:54:11;;;;;;;;;;;;;;;15.99;49.76;96868.38;110376;1241;69807;-60
2024/02/24 10:56:40;;;;;;;;;;;;;;;16.02;49.50;96869.84;110346;1241;60494;-61
2024/02/24 10:59:10;;;;;;;;;;;;;;;15.99;49.13;96870.52;110366;1241;60933;-61
2024/02/24 11:01:43;;;;;;;;;;;;;;;15.94;49.11;96869.73;110365;1240;72865;-60
2024/02/24 11:04:12;;;;;;;;;;;;;;;15.98;49.78;96869.52;110367;1241;69870;-60
2024/02/24 11:06:48;;;;;;;;;;;;;;;15.97;49.98;96868.95;110387;1242;70046;-61
2024/02/24 11:09:37;;;;;;;;;;;;;;;16.00;49.90;96869.80;110360;1239;60566;-61
2024/02/24 11:12:12;;;;;;;;;;;;;;;15.98;49.64;96864.91;110500;1241;60469;-62
2024/02/24 11:14:43;;;;;;;;;;;;;;;16.01;49.81;96870.04;110450;1241;72345;-61
2024/02/24 11:17:12;;;;;;;;;;;;;;;16.01;49.85;96871.33;110387;1239;68686;-61
2024/02/24 11:19:45;;;;;;;;;;;;;;;15.99;49.71;96871.48;110407;1239;70415;-61
2024/02/24 11:22:24;;;;;;;;;;;;;;;15.97;49.77;96873.18;110312;1241;60510;-61
2024/02/24 11:25:00;;;;;;;;;;;;;;;15.91;49.71;96873.29;110366;1242;60558;-61
2024/02/24 11:27:34;;;;;;;;;;;;;;;15.83;49.94;96878.15;110347;1241;72192;-61
2024/02/24 11:30:22;;;;;;;;;;;;;;;15.72;50.13;96876.16;110335;1241;69853;-61
2024/02/24 11:32:51;;;;;;;;;;;;;;;15.65;50.35;96877.98;110344;1240;69257;-61
2024/02/24 11:35:21;;;;;;;;;;;;;;;15.63;50.03;96878.92;110322;1242;60472;-60
2024/02/24 11:37:50;;;;;;;;;;;;;;;15.59;49.98;96877.17;110322;1242;60418;-61
2024/02/24 11:40:18;;;;;;;;;;;;;;;15.59;50.06;96879.90;110387;1244;72636;-60
2024/02/24 11:42:48;;;;;;;;;;;;;;;15.52;50.20;96877.02;110311;1249;69954;-63
2024/02/24 11:45:17;;;;;;;;;;;;;;;15.48;50.57;96877.60;110433;1248;69898;-60
2024/02/24 11:47:47;;;;;;;;;;;;;;;15.45;50.57;96878.77;110421;1248;60560;-62
2024/02/24 11:50:16;;;;;;;;;;;;;;;15.43;50.89;96880.56;110449;1241;60482;-61
2024/02/24 11:52:45;;;;;;;;;;;;;;;15.43;50.91;96880.42;110374;1246;71971;-61
2024/02/24 11:55:14;;;;;;;;;;;;;;;15.39;51.08;96880.80;110349;1241;69213;-61
2024/02/24 11:57:42;;;;;;;;;;;;;;;15.35;51.34;96878.92;110295;1241;69287;-61
2024/02/24 12:00:11;;;;;;;;;;;;;;;15.35;51.44;96878.80;110448;1241;60496;-62
2024/02/24 12:02:40;;;;;;;;;;;;;;;15.34;51.27;96876.41;110427;1241;60472;-61
2024/02/24 12:05:13;;;;;;;;;;;;;;;15.34;51.63;96878.65;110500;1242;71146;-63
2024/02/24 12:07:42;;;;;;;;;;;;;;;15.40;51.79;96882.15;110426;1240;69687;-61
2024/02/24 12:10:11;;;;;;;;;;;;;;;15.45;51.97;96881.95;110470;1241;69893;-61
2024/02/24 12:12:41;;;;;;;;;;;;;;;15.51;51.54;96881.17;110537;1241;60928;-60
2024/02/24 12:15:10;;;;;;;;;;;;;;;15.51;51.40;96883.08;110487;1241;60478;-61
2024/02/24 12:17:46;;;;;;;;;;;;;;;15.52;51.68;96885.29;110493;1242;72863;-62
2024/02/24 12:20:15;;;;;;;;;;;;;;;15.53;51.42;96882.31;110410;1241;69899;-60
2024/02/24 12:22:44;;;;;;;;;;;;;;;15.51;51.63;96882.49;110316;1241;69757;-60
2024/02/24 12:25:14;;;;;;;;;;;;;;;15.50;52.03;96882.98;110425;1241;60531;-60
2024/02/24 12:27:43;;;;;;;;;;;;;;;15.53;52.13;96883.27;110421;1240;60498;-60
2024/02/24 12:30:12;;;;;;;;;;;;;;;15.54;51.94;96879.79;110362;1241;71333;-61
2024/02/24 12:32:42;;;;;;;;;;;;;;;15.55;52.00;96881.42;110379;1243;69891;-60
2024/02/24 12:35:12;;;;;;;;;;;;;;;15.57;51.98;96878.84;110385;1241;70004;-61
2024/02/24 12:37:43;;;;;;;;;;;;;;;15.56;51.71;96879.73;110448;1241;60467;-61
2024/02/24 12:40:28;;;;;;;;;;;;;;;15.58;51.18;96878.89;110448;1242;60535;-62
2024/02/24 12:42:57;;;;;;;;;;;;;;;15.55;51.40;96882.18;110391;1241;72831;-61
2024/02/24 12:45:27;;;;;;;;;;;;;;;15.55;51.74;96882.71;110320;1241;69766;-61
2024/02/24 12:47:56;;;;;;;;;;;;;;;15.57;51.77;96882.89;110323;1241;69845;-60
2024/02/24 12:50:28;;;;;;;;;;;;;;;15.58;51.53;96881.55;110308;1241;60473;-61
2024/02/24 12:52:57;;;;;;;;;;;;;;;15.58;51.50;96885.87;110382;1241;60544;-61
2024/02/24 12:55:25;;;;;;;;;;;;;;;15.59;51.77;96881.62;110365;1241;71994;-61